Time;durP1;ratioP1;P1;durP2;ratioP2;P2;SDS_P1;SDS_P2;PMS_P1;PMS_P2;Temp;Humidity;BMP_temperature;BMP_pressure;BME280_temperature;BME280_humidity;BME280_pressure;Samples;Min_cycle;Max_cycle;Signal;HPM_P1;HPM_P2
2023/12/21 00:00:54;;;;;;;5.90;3.90;;;;;21.10;99564.00;;;;2070343;28;20221;-70
2023/12/21 00:01:54;;;;;;;7.23;4.40;;;;;21.10;99587.00;;;;2080095;28;20210;-70
2023/12/21 00:02:55;;;;;;;6.23;4.10;;;;;21.10;99566.00;;;;2082528;28;20270;-70
2023/12/21 00:03:55;;;;;;;5.00;4.00;;;;;21.10;99566.00;;;;2079045;28;20220;-70
2023/12/21 00:04:55;;;;;;;4.80;3.73;;;;;21.10;99565.00;;;;2079744;28;20205;-70
2023/12/21 00:05:56;;;;;;;5.63;3.63;;;;;21.10;99574.00;;;;2070557;28;20228;-70
2023/12/21 00:06:56;;;;;;;4.40;3.00;;;;;21.10;99572.00;;;;2080680;28;20279;-70
2023/12/21 00:07:57;;;;;;;6.13;4.00;;;;;21.10;99574.00;;;;2080831;28;20248;-70
2023/12/21 00:08:57;;;;;;;5.20;3.77;;;;;21.10;99569.00;;;;2075642;28;20214;-70
2023/12/21 00:09:58;;;;;;;5.40;4.47;;;;;21.10;99573.00;;;;2079868;28;20715;-70
2023/12/21 00:10:58;;;;;;;4.27;3.37;;;;;21.10;99580.00;;;;2071501;28;20217;-70
2023/12/21 00:11:58;;;;;;;4.60;3.80;;;;;21.00;99574.00;;;;2080183;28;20444;-70
2023/12/21 00:12:59;;;;;;;7.20;3.60;;;;;21.10;99565.00;;;;2080971;28;20210;-70
2023/12/21 00:14:00;;;;;;;6.67;4.00;;;;;21.10;99563.00;;;;2080457;28;20212;-70
2023/12/21 00:15:00;;;;;;;4.80;3.80;;;;;21.00;99571.00;;;;2080509;28;20212;-70
2023/12/21 00:16:00;;;;;;;6.50;4.10;;;;;21.10;99554.00;;;;2071665;28;20304;-70
2023/12/21 00:17:01;;;;;;;5.00;3.40;;;;;21.00;99556.00;;;;2080711;28;20197;-70
2023/12/21 00:18:01;;;;;;;5.50;4.03;;;;;21.00;99555.00;;;;2081197;28;20221;-70
2023/12/21 00:19:02;;;;;;;5.83;3.73;;;;;21.00;99557.00;;;;2080458;28;20240;-70
2023/12/21 00:20:03;;;;;;;5.50;4.07;;;;;21.00;99556.00;;;;2079190;28;20214;-70
2023/12/21 00:21:03;;;;;;;4.00;3.03;;;;;21.00;99562.00;;;;2071700;28;20226;-70
2023/12/21 00:22:03;;;;;;;4.73;3.57;;;;;21.00;99555.00;;;;2080815;28;20261;-70
2023/12/21 00:23:04;;;;;;;5.17;3.50;;;;;21.00;99550.00;;;;2081044;28;20212;-70
2023/12/21 00:24:04;;;;;;;4.73;3.73;;;;;21.00;99552.00;;;;2080425;28;20202;-70
2023/12/21 00:25:05;;;;;;;6.03;3.83;;;;;21.00;99561.00;;;;2080869;28;20249;-70
2023/12/21 00:26:05;;;;;;;3.60;2.93;;;;;21.00;99552.00;;;;2071398;28;20225;-70
2023/12/21 00:27:05;;;;;;;4.70;3.40;;;;;21.00;99554.00;;;;2081089;28;20352;-70
2023/12/21 00:28:06;;;;;;;6.23;3.60;;;;;21.00;99549.00;;;;2078606;28;20214;-70
2023/12/21 00:29:08;;;;;;;5.07;3.73;;;;;21.00;99544.00;;;;2080158;28;20233;-70
2023/12/21 00:30:08;;;;;;;5.25;3.63;;;;;21.00;99542.00;;;;2080186;28;20210;-70
2023/12/21 00:31:09;;;;;;;5.50;3.60;;;;;21.00;99550.00;;;;2071148;28;20225;-70
2023/12/21 00:32:09;;;;;;;3.80;3.20;;;;;21.00;99543.00;;;;2081097;28;20242;-70
2023/12/21 00:33:09;;;;;;;3.80;2.90;;;;;21.00;99554.00;;;;2080397;28;20597;-70
2023/12/21 00:34:10;;;;;;;4.47;3.40;;;;;21.00;99560.00;;;;2081171;28;20716;-70
2023/12/21 00:35:10;;;;;;;4.17;3.10;;;;;21.00;99553.00;;;;2081222;28;20260;-70
2023/12/21 00:36:16;;;;;;;4.53;3.10;;;;;21.00;99550.00;;;;2069738;28;20268;-70
2023/12/21 00:37:17;;;;;;;4.43;3.35;;;;;21.00;99553.00;;;;2077360;28;20205;-70
2023/12/21 00:38:17;;;;;;;3.87;3.07;;;;;21.00;99537.00;;;;2080429;28;20267;-70
2023/12/21 00:39:17;;;;;;;4.00;2.93;;;;;21.00;99548.00;;;;2071931;28;20222;-70
2023/12/21 00:40:18;;;;;;;3.60;2.77;;;;;21.00;99560.00;;;;2079939;28;20268;-70
2023/12/21 00:41:18;;;;;;;3.57;3.17;;;;;21.00;99547.00;;;;2077626;28;20232;-70
2023/12/21 00:42:19;;;;;;;5.00;3.33;;;;;21.00;99540.00;;;;2088439;28;20221;-70
2023/12/21 00:43:19;;;;;;;4.50;3.27;;;;;21.00;99534.00;;;;2081573;28;20293;-70
2023/12/21 00:44:19;;;;;;;4.80;3.30;;;;;21.00;99530.00;;;;2080883;28;20262;-70
2023/12/21 00:45:20;;;;;;;3.80;2.73;;;;;21.00;99536.00;;;;2080694;28;20217;-70
2023/12/21 00:46:20;;;;;;;4.70;3.00;;;;;21.00;99527.00;;;;2071457;28;20214;-70
2023/12/21 00:47:21;;;;;;;4.57;3.00;;;;;21.00;99526.00;;;;2080636;28;20272;-70
2023/12/21 00:48:21;;;;;;;3.80;2.60;;;;;21.00;99397.00;;;;2081058;28;20242;-70
2023/12/21 00:49:21;;;;;;;4.53;3.10;;;;;21.00;99523.00;;;;2080775;28;20940;-70
2023/12/21 00:50:22;;;;;;;3.83;3.13;;;;;21.00;99527.00;;;;2074479;28;20713;-70
2023/12/21 00:51:22;;;;;;;4.40;2.93;;;;;21.00;99528.00;;;;2071230;28;20214;-70
2023/12/21 00:52:22;;;;;;;4.87;3.00;;;;;21.00;99529.00;;;;2080565;28;20789;-70
2023/12/21 00:53:24;;;;;;;5.83;2.93;;;;;21.00;99528.00;;;;2080894;28;20677;-70
2023/12/21 00:54:24;;;;;;;4.35;3.10;;;;;21.00;99529.00;;;;2078850;28;20773;-70
2023/12/21 00:55:25;;;;;;;5.70;2.83;;;;;21.00;99515.00;;;;2080923;28;20214;-70
2023/12/21 00:56:25;;;;;;;2.80;2.50;;;;;21.00;99519.00;;;;2071448;28;20287;-70
2023/12/21 00:57:25;;;;;;;3.63;2.93;;;;;21.00;99530.00;;;;2080557;28;20205;-68
2023/12/21 00:58:26;;;;;;;4.03;2.57;;;;;21.00;99527.00;;;;2080955;28;20210;-68
2023/12/21 00:59:26;;;;;;;3.93;2.87;;;;;21.00;99527.00;;;;2078381;28;20214;-67
2023/12/21 01:00:26;;;;;;;3.47;2.60;;;;;21.00;99523.00;;;;2080747;28;20212;-67
2023/12/21 01:01:27;;;;;;;3.83;2.90;;;;;21.00;99519.00;;;;2071158;28;20209;-67
2023/12/21 01:02:27;;;;;;;3.33;2.80;;;;;21.00;99509.00;;;;2080200;28;20233;-67
2023/12/21 01:03:27;;;;;;;2.80;2.30;;;;;21.00;99518.00;;;;2080753;28;20209;-67
2023/12/21 01:04:28;;;;;;;3.77;2.80;;;;;21.00;99521.00;;;;2081024;28;20224;-67
2023/12/21 01:05:28;;;;;;;4.00;2.60;;;;;20.90;99506.00;;;;2072027;28;20632;-67
2023/12/21 01:06:28;;;;;;;3.27;2.43;;;;;21.00;99510.00;;;;2080238;28;20622;-67
2023/12/21 01:07:29;;;;;;;2.90;2.17;;;;;21.00;99505.00;;;;2080218;28;20213;-67
2023/12/21 01:08:29;;;;;;;3.93;2.70;;;;;21.00;99503.00;;;;2080774;28;20213;-67
2023/12/21 01:09:29;;;;;;;6.57;2.60;;;;;20.90;99502.00;;;;2078993;28;20213;-67
2023/12/21 01:10:30;;;;;;;3.43;2.60;;;;;21.00;99370.00;;;;2070625;28;20637;-67
2023/12/21 01:11:30;;;;;;;3.43;2.70;;;;;21.00;99514.00;;;;2080906;28;20678;-67
2023/12/21 01:12:32;;;;;;;4.70;2.60;;;;;21.00;99516.00;;;;2080404;28;20204;-67
2023/12/21 01:13:33;;;;;;;3.88;2.35;;;;;21.00;99507.00;;;;2080932;28;20701;-67
2023/12/21 01:14:33;;;;;;;3.38;2.22;;;;;20.90;99518.00;;;;2079898;28;20262;-67
2023/12/21 01:15:34;;;;;;;3.53;2.30;;;;;20.90;99507.00;;;;2069328;28;20997;-67
2023/12/21 01:16:34;;;;;;;2.90;1.97;;;;;20.90;99498.00;;;;2080208;28;20210;-67
2023/12/21 01:17:34;;;;;;;5.07;2.73;;;;;21.00;99507.00;;;;2084362;28;20220;-67
2023/12/21 01:18:35;;;;;;;3.70;2.30;;;;;20.90;99507.00;;;;2080854;28;20232;-67
2023/12/21 01:19:35;;;;;;;2.33;1.87;;;;;20.90;99494.00;;;;2079812;28;20210;-67
2023/12/21 01:20:35;;;;;;;3.77;2.50;;;;;20.90;99495.00;;;;2071311;28;20209;-67
2023/12/21 01:21:37;;;;;;;2.20;1.80;;;;;20.90;99493.00;;;;2080250;28;20233;-67
2023/12/21 01:22:38;;;;;;;3.55;2.35;;;;;20.90;99444.00;;;;2079091;28;20344;-67
2023/12/21 01:23:38;;;;;;;3.43;2.43;;;;;20.90;99499.00;;;;2077476;28;21080;-67
2023/12/21 01:24:39;;;;;;;2.50;2.10;;;;;20.90;99493.00;;;;2078519;28;20223;-67
2023/12/21 01:25:39;;;;;;;4.13;2.60;;;;;20.90;99490.00;;;;2071083;28;20218;-67
2023/12/21 01:26:40;;;;;;;5.83;2.43;;;;;20.90;99500.00;;;;2080329;28;20209;-67
2023/12/21 01:27:41;;;;;;;2.83;2.33;;;;;20.90;99484.00;;;;2080621;28;20237;-67
2023/12/21 01:28:42;;;;;;;3.03;2.28;;;;;20.90;99482.00;;;;2080177;28;20209;-67
2023/12/21 01:29:42;;;;;;;3.07;2.20;;;;;20.90;99473.00;;;;2080314;28;20206;-67
2023/12/21 01:30:43;;;;;;;3.00;2.37;;;;;20.90;99472.00;;;;2070680;28;20355;-67
2023/12/21 01:31:43;;;;;;;4.67;2.20;;;;;20.90;99478.00;;;;2080382;28;20202;-67
2023/12/21 01:32:44;;;;;;;2.30;2.00;;;;;20.90;99469.00;;;;2080650;28;20260;-67
2023/12/21 01:33:44;;;;;;;4.03;2.03;;;;;20.90;99459.00;;;;2078982;28;20202;-67
2023/12/21 01:34:44;;;;;;;3.20;2.50;;;;;20.90;99466.00;;;;2080685;28;20201;-67
2023/12/21 01:35:44;;;;;;;3.10;2.00;;;;;20.90;99443.00;;;;2070421;28;20209;-67
2023/12/21 01:36:45;;;;;;;2.80;1.90;;;;;20.90;99449.00;;;;2078822;28;20261;-67
2023/12/21 01:37:45;;;;;;;3.33;2.07;;;;;20.90;99434.00;;;;2080122;28;20205;-67
2023/12/21 01:38:46;;;;;;;2.67;2.20;;;;;20.90;99437.00;;;;2083703;28;20206;-67
2023/12/21 01:39:46;;;;;;;2.70;2.13;;;;;20.90;99439.00;;;;2080239;28;20681;-67
2023/12/21 01:40:46;;;;;;;2.63;1.80;;;;;20.90;99429.00;;;;2069993;28;20247;-67
2023/12/21 01:41:46;;;;;;;3.90;2.00;;;;;20.90;99422.00;;;;2080550;28;20225;-67
2023/12/21 01:42:47;;;;;;;3.00;2.10;;;;;20.90;99416.00;;;;2080145;28;20283;-67
2023/12/21 01:43:47;;;;;;;3.63;2.10;;;;;20.90;99417.00;;;;2080632;28;20217;-67
2023/12/21 01:44:47;;;;;;;2.80;2.03;;;;;20.90;99412.00;;;;2078875;28;20224;-67
2023/12/21 01:45:48;;;;;;;2.57;1.80;;;;;20.90;99421.00;;;;2073394;28;20262;-67
2023/12/21 01:46:48;;;;;;;2.67;2.00;;;;;20.90;99400.00;;;;2085708;28;20221;-67
2023/12/21 01:47:48;;;;;;;4.03;2.37;;;;;20.90;99419.00;;;;2081376;28;20248;-67
2023/12/21 01:48:49;;;;;;;3.50;2.10;;;;;20.90;99417.00;;;;2079741;28;20233;-67
2023/12/21 01:49:49;;;;;;;2.53;1.87;;;;;20.90;99421.00;;;;2070943;28;20242;-67
2023/12/21 01:50:50;;;;;;;2.10;1.57;;;;;20.90;99432.00;;;;2062002;28;20287;-67
2023/12/21 01:51:50;;;;;;;1.90;1.67;;;;;20.90;99419.00;;;;2075432;28;20212;-67
2023/12/21 01:52:51;;;;;;;4.40;2.03;;;;;20.90;99417.00;;;;2080214;28;20217;-67
2023/12/21 01:53:52;;;;;;;2.30;1.80;;;;;20.90;99417.00;;;;2078288;28;20312;-67
2023/12/21 01:54:52;;;;;;;2.70;2.00;;;;;20.90;99422.00;;;;2079761;28;20235;-67
2023/12/21 01:55:53;;;;;;;3.50;1.50;;;;;20.90;99418.00;;;;2067724;28;20225;-67
2023/12/21 01:56:53;;;;;;;3.87;1.90;;;;;20.90;99421.00;;;;2079164;28;20224;-67
2023/12/21 01:57:53;;;;;;;5.07;2.10;;;;;20.90;99405.00;;;;2079350;28;20252;-67
2023/12/21 01:58:54;;;;;;;3.80;2.10;;;;;20.90;99381.00;;;;2079310;28;20300;-67
2023/12/21 01:59:54;;;;;;;2.67;2.00;;;;;20.90;99408.00;;;;2079296;28;20216;-67
2023/12/21 02:00:55;;;;;;;2.70;1.83;;;;;20.80;99417.00;;;;2069356;28;20607;-67
2023/12/21 02:01:56;;;;;;;2.57;1.80;;;;;20.90;99409.00;;;;2075427;28;20348;-67
2023/12/21 02:02:56;;;;;;;3.20;1.67;;;;;20.80;99417.00;;;;2067995;28;20515;-67
2023/12/21 02:03:56;;;;;;;2.97;1.70;;;;;20.80;99408.00;;;;2074869;28;20671;-67
2023/12/21 02:04:57;;;;;;;3.63;1.60;;;;;20.80;99426.00;;;;2079652;28;20223;-67
2023/12/21 02:05:57;;;;;;;2.57;1.60;;;;;20.90;99418.00;;;;2074403;28;20212;-67
2023/12/21 02:06:57;;;;;;;3.30;1.73;;;;;20.90;99412.00;;;;2087809;28;20232;-67
2023/12/21 02:07:58;;;;;;;3.50;1.80;;;;;20.80;99414.00;;;;2079418;28;20210;-67
2023/12/21 02:08:58;;;;;;;2.07;1.67;;;;;20.80;99419.00;;;;2078776;28;20225;-67
2023/12/21 02:09:58;;;;;;;1.90;1.60;;;;;20.90;99402.00;;;;2079684;28;20236;-67
2023/12/21 02:10:59;;;;;;;2.57;1.93;;;;;20.90;99409.00;;;;2069869;28;20209;-67
2023/12/21 02:11:59;;;;;;;3.50;2.00;;;;;20.80;99401.00;;;;2077744;28;20209;-67
2023/12/21 02:12:59;;;;;;;2.20;1.77;;;;;20.80;99400.00;;;;2080194;28;20283;-67
2023/12/21 02:14:00;;;;;;;1.97;1.70;;;;;20.80;99397.00;;;;2079187;28;20205;-67
2023/12/21 02:15:00;;;;;;;2.50;1.80;;;;;20.80;99396.00;;;;2079732;28;20573;-67
2023/12/21 02:16:05;;;;;;;2.50;1.80;;;;;20.80;99383.00;;;;2069858;28;20213;-67
2023/12/21 02:17:06;;;;;;;2.20;1.80;;;;;20.80;99397.00;;;;2079223;28;20219;-67
2023/12/21 02:18:07;;;;;;;3.53;2.58;;;;;20.80;99387.00;;;;2079311;28;20224;-67
2023/12/21 02:19:09;;;;;;;2.43;2.10;;;;;20.80;99404.00;;;;2077921;28;20845;-67
2023/12/21 02:20:09;;;;;;;2.60;2.10;;;;;20.80;99347.00;;;;2078786;28;20217;-67
2023/12/21 02:21:10;;;;;;;2.97;1.80;;;;;20.80;99339.00;;;;2069812;28;20220;-67
2023/12/21 02:22:10;;;;;;;2.30;1.60;;;;;20.80;99402.00;;;;2078842;28;20209;-67
2023/12/21 02:23:11;;;;;;;2.33;1.53;;;;;20.80;99389.00;;;;2079562;28;20212;-67
2023/12/21 02:24:14;;;;;;;2.10;1.60;;;;;20.80;99390.00;;;;2079010;28;20210;-67
2023/12/21 02:25:14;;;;;;;2.67;1.75;;;;;20.80;99388.00;;;;2078412;28;20269;-67
2023/12/21 02:26:14;;;;;;;3.20;1.70;;;;;20.80;99381.00;;;;2070016;28;20216;-68
2023/12/21 02:27:15;;;;;;;2.57;1.80;;;;;20.80;99378.00;;;;2076689;28;20224;-68
2023/12/21 02:28:15;;;;;;;2.83;1.90;;;;;20.80;99382.00;;;;2079640;28;20263;-67
2023/12/21 02:29:15;;;;;;;3.23;2.13;;;;;20.80;99392.00;;;;2079338;28;20209;-67
2023/12/21 02:30:16;;;;;;;1.83;1.53;;;;;20.80;99381.00;;;;2079210;28;20216;-67
2023/12/21 02:31:16;;;;;;;2.50;1.90;;;;;20.80;99381.00;;;;2069509;28;20210;-67
2023/12/21 02:32:16;;;;;;;2.10;1.60;;;;;20.80;99340.00;;;;2079458;28;20678;-67
2023/12/21 02:33:17;;;;;;;2.80;1.70;;;;;20.80;99387.00;;;;2077898;28;20240;-67
2023/12/21 02:34:17;;;;;;;2.03;1.83;;;;;20.80;99387.00;;;;2080209;28;20221;-67
2023/12/21 02:35:17;;;;;;;2.60;2.00;;;;;20.80;99381.00;;;;2080256;28;20213;-67
2023/12/21 02:36:18;;;;;;;2.53;2.00;;;;;20.80;99390.00;;;;2082674;28;20609;-67
2023/12/21 02:37:18;;;;;;;1.73;1.47;;;;;20.80;99378.00;;;;2089311;28;20800;-67
2023/12/21 02:38:18;;;;;;;3.00;1.97;;;;;20.80;99370.00;;;;2079637;28;20788;-67
2023/12/21 02:39:19;;;;;;;3.53;1.57;;;;;20.80;99197.00;;;;2079421;28;20693;-67
2023/12/21 02:40:19;;;;;;;3.00;2.07;;;;;20.80;99364.00;;;;2079325;28;20217;-67
2023/12/21 02:41:19;;;;;;;2.90;2.20;;;;;20.80;99365.00;;;;2076901;28;20243;-67
2023/12/21 02:42:20;;;;;;;2.27;1.70;;;;;20.80;99362.00;;;;2086974;28;20217;-67
2023/12/21 02:43:20;;;;;;;2.00;1.70;;;;;20.80;99356.00;;;;2080830;28;20263;-67
2023/12/21 02:44:20;;;;;;;2.40;1.70;;;;;20.80;99364.00;;;;2080139;28;20246;-67
2023/12/21 02:45:21;;;;;;;2.30;1.70;;;;;20.80;99360.00;;;;2079647;28;20286;-67
2023/12/21 02:46:23;;;;;;;2.17;1.80;;;;;20.80;99358.00;;;;2069799;28;20248;-67
2023/12/21 02:47:24;;;;;;;2.88;2.05;;;;;20.80;99362.00;;;;2079320;28;20217;-67
2023/12/21 02:48:24;;;;;;;2.30;1.90;;;;;20.80;99353.00;;;;2079423;28;20270;-67
2023/12/21 02:49:24;;;;;;;2.70;1.90;;;;;20.80;99359.00;;;;2076514;28;20210;-67
2023/12/21 02:50:25;;;;;;;2.23;1.63;;;;;20.80;99359.00;;;;2081475;28;20208;-67
2023/12/21 02:51:25;;;;;;;3.37;1.90;;;;;20.80;99361.00;;;;2071303;28;20617;-67
2023/12/21 02:52:25;;;;;;;2.17;1.53;;;;;20.80;99347.00;;;;2078183;28;20682;-67
2023/12/21 02:53:26;;;;;;;4.57;2.00;;;;;20.80;99349.00;;;;2080062;28;20220;-67
2023/12/21 02:54:26;;;;;;;2.57;1.93;;;;;20.80;99339.00;;;;2079814;28;20218;-67
2023/12/21 02:55:26;;;;;;;1.83;1.60;;;;;20.80;99343.00;;;;2079772;28;20219;-67
2023/12/21 02:56:27;;;;;;;3.60;1.97;;;;;20.80;99336.00;;;;2070445;28;20210;-67
2023/12/21 02:57:27;;;;;;;2.23;1.63;;;;;20.70;99328.00;;;;2078818;28;20243;-67
2023/12/21 02:58:27;;;;;;;2.00;1.50;;;;;20.80;99328.00;;;;2075863;28;20214;-67
2023/12/21 02:59:28;;;;;;;2.53;1.90;;;;;20.70;99330.00;;;;2079154;28;20344;-67
2023/12/21 03:00:28;;;;;;;2.97;1.97;;;;;20.80;99328.00;;;;2076054;28;20217;-67
2023/12/21 03:01:28;;;;;;;2.60;1.80;;;;;20.70;99320.00;;;;2083010;28;20290;-67
2023/12/21 03:02:29;;;;;;;2.10;1.60;;;;;20.70;99316.00;;;;2086818;28;20212;-67
2023/12/21 03:03:29;;;;;;;2.70;1.90;;;;;20.70;99319.00;;;;2079278;28;20233;-67
2023/12/21 03:04:29;;;;;;;2.57;1.67;;;;;20.70;99294.00;;;;2078011;28;20236;-67
2023/12/21 03:05:30;;;;;;;2.10;1.70;;;;;20.70;99269.00;;;;2069295;28;20216;-67
2023/12/21 03:06:30;;;;;;;2.87;1.83;;;;;20.70;99335.00;;;;2080221;28;20244;-67
2023/12/21 03:07:30;;;;;;;2.50;1.73;;;;;20.70;99314.00;;;;2078190;28;20260;-67
2023/12/21 03:08:31;;;;;;;2.10;1.80;;;;;20.70;99261.00;;;;2078629;28;20210;-67
2023/12/21 03:09:31;;;;;;;2.20;1.87;;;;;20.70;99318.00;;;;2079829;28;20578;-67
2023/12/21 03:10:31;;;;;;;2.37;1.40;;;;;20.70;99316.00;;;;2074339;28;20208;-67
2023/12/21 03:11:32;;;;;;;3.00;1.73;;;;;20.70;99326.00;;;;2080175;28;20237;-67
2023/12/21 03:12:32;;;;;;;2.20;1.53;;;;;20.70;99325.00;;;;2079474;28;20217;-67
2023/12/21 03:13:33;;;;;;;3.70;1.53;;;;;20.70;99330.00;;;;2071538;28;20226;-67
2023/12/21 03:14:33;;;;;;;1.80;1.30;;;;;20.70;99316.00;;;;2079290;28;20283;-67
2023/12/21 03:15:33;;;;;;;2.97;1.90;;;;;20.70;99313.00;;;;2070445;28;20217;-67
2023/12/21 03:16:34;;;;;;;2.80;1.87;;;;;20.70;99320.00;;;;2079174;28;20217;-67
2023/12/21 03:17:37;;;;;;;1.80;1.27;;;;;20.70;99313.00;;;;2077711;28;20263;-67
2023/12/21 03:18:37;;;;;;;2.30;1.75;;;;;20.70;99305.00;;;;2079536;28;20735;-67
2023/12/21 03:19:37;;;;;;;2.33;1.40;;;;;20.70;99313.00;;;;2079168;28;20236;-67
2023/12/21 03:20:38;;;;;;;2.00;1.60;;;;;20.70;99310.00;;;;2070292;28;20244;-67
2023/12/21 03:21:38;;;;;;;2.53;1.50;;;;;20.70;99306.00;;;;2079465;28;20240;-67
2023/12/21 03:22:39;;;;;;;2.87;1.80;;;;;20.70;99308.00;;;;2083568;28;20229;-67
2023/12/21 03:23:40;;;;;;;1.60;1.10;;;;;20.70;99316.00;;;;2079975;28;20248;-67
2023/12/21 03:24:40;;;;;;;1.73;1.30;;;;;20.70;99296.00;;;;2079423;28;20283;-67
2023/12/21 03:25:40;;;;;;;2.30;1.60;;;;;20.50;99287.00;;;;2070445;28;20214;-67
2023/12/21 03:26:43;;;;;;;3.33;1.50;;;;;20.70;99294.00;;;;2079161;28;20210;-67
2023/12/21 03:27:43;;;;;;;2.22;1.67;;;;;20.70;99297.00;;;;2079685;28;20210;-67
2023/12/21 03:28:45;;;;;;;1.90;1.40;;;;;20.70;99289.00;;;;2079540;28;20661;-67
2023/12/21 03:29:46;;;;;;;1.75;1.20;;;;;20.70;99281.00;;;;2082959;28;20240;-67
2023/12/21 03:30:46;;;;;;;2.97;1.30;;;;;20.70;99275.00;;;;2070511;28;20287;-67
2023/12/21 03:31:46;;;;;;;2.17;1.30;;;;;20.70;99266.00;;;;2077650;28;20205;-67
2023/12/21 03:32:47;;;;;;;1.70;1.20;;;;;20.70;99258.00;;;;2078994;28;20206;-67
2023/12/21 03:33:47;;;;;;;2.13;1.47;;;;;20.60;99259.00;;;;2079395;28;20222;-67
2023/12/21 03:34:48;;;;;;;2.23;1.10;;;;;20.70;99264.00;;;;2079571;28;20256;-67
2023/12/21 03:35:49;;;;;;;2.40;1.35;;;;;20.70;99259.00;;;;2070417;28;20217;-67
2023/12/21 03:36:49;;;;;;;1.50;1.00;;;;;20.70;99247.00;;;;2084654;28;20213;-67
2023/12/21 03:37:49;;;;;;;3.93;1.60;;;;;20.70;99254.00;;;;2079695;28;20267;-67
2023/12/21 03:38:49;;;;;;;2.20;1.30;;;;;20.70;99226.00;;;;2078092;28;20210;-67
2023/12/21 03:39:50;;;;;;;2.37;1.40;;;;;20.60;99228.00;;;;2080786;28;20255;-67
2023/12/21 03:40:50;;;;;;;1.80;1.03;;;;;20.70;99227.00;;;;2069283;28;20229;-67
2023/12/21 03:41:50;;;;;;;1.50;1.00;;;;;20.70;99227.00;;;;2081590;28;20236;-67
2023/12/21 03:42:52;;;;;;;1.97;1.20;;;;;20.60;99226.00;;;;2081412;28;20213;-67
2023/12/21 03:43:52;;;;;;;1.80;1.08;;;;;20.60;99219.00;;;;2080757;28;20379;-67
2023/12/21 03:44:52;;;;;;;2.20;1.50;;;;;20.60;99218.00;;;;2081395;28;20217;-67
2023/12/21 03:45:53;;;;;;;2.30;1.27;;;;;20.60;99223.00;;;;2066861;28;20249;-67
2023/12/21 03:46:53;;;;;;;2.60;1.33;;;;;20.70;99211.00;;;;2081375;28;20279;-67
2023/12/21 03:47:54;;;;;;;2.63;1.30;;;;;20.60;99210.00;;;;2080973;28;20282;-67
2023/12/21 03:48:54;;;;;;;1.60;1.10;;;;;20.60;99211.00;;;;2086868;28;20275;-67
2023/12/21 03:49:54;;;;;;;2.10;1.00;;;;;20.60;99199.00;;;;2079198;28;20206;-67
2023/12/21 03:50:55;;;;;;;1.50;1.20;;;;;20.60;99204.00;;;;2071384;28;20225;-67
2023/12/21 03:51:58;;;;;;;1.77;1.20;;;;;20.60;99197.00;;;;2081388;28;20210;-68
2023/12/21 03:52:58;;;;;;;6.22;1.38;;;;;20.60;99212.00;;;;2080010;28;20201;-68
2023/12/21 03:53:58;;;;;;;1.70;1.00;;;;;20.60;99200.00;;;;2080696;28;20205;-67
2023/12/21 03:54:59;;;;;;;2.20;1.20;;;;;20.60;99204.00;;;;2076889;28;20210;-67
2023/12/21 03:55:59;;;;;;;2.40;1.40;;;;;20.60;99192.00;;;;2071700;28;20241;-67
2023/12/21 03:57:00;;;;;;;3.47;1.50;;;;;20.60;99206.00;;;;2080736;28;20689;-67
2023/12/21 03:58:00;;;;;;;1.77;1.00;;;;;20.60;99195.00;;;;2080054;28;20217;-67
2023/12/21 03:59:00;;;;;;;2.27;1.13;;;;;20.60;99195.00;;;;2079715;28;20594;-67
2023/12/21 04:00:01;;;;;;;1.80;1.03;;;;;20.60;99182.00;;;;2079400;28;20217;-67
2023/12/21 04:01:01;;;;;;;2.40;1.13;;;;;20.60;99194.00;;;;2071486;28;20267;-67
2023/12/21 04:02:02;;;;;;;2.47;1.20;;;;;20.60;99182.00;;;;2080598;28;20223;-67
2023/12/21 04:03:02;;;;;;;2.37;1.10;;;;;20.60;99176.00;;;;2080896;28;20214;-67
2023/12/21 04:04:02;;;;;;;2.10;1.00;;;;;20.60;99150.00;;;;2081418;28;20228;-67
2023/12/21 04:05:03;;;;;;;1.87;1.07;;;;;20.60;99185.00;;;;2081246;28;20247;-67
2023/12/21 04:06:03;;;;;;;2.43;1.20;;;;;20.60;99183.00;;;;2070877;28;20233;-67
2023/12/21 04:07:04;;;;;;;2.00;1.20;;;;;20.60;99183.00;;;;2080143;28;20217;-67
2023/12/21 04:08:05;;;;;;;1.70;1.10;;;;;20.60;99194.00;;;;2079573;28;20218;-67
2023/12/21 04:09:06;;;;;;;2.30;1.02;;;;;20.60;99203.00;;;;2077882;28;20297;-68
2023/12/21 04:10:07;;;;;;;1.53;1.03;;;;;20.60;99173.00;;;;2080271;28;20606;-67
2023/12/21 04:11:07;;;;;;;1.53;0.90;;;;;20.60;99183.00;;;;2071150;28;20582;-67
2023/12/21 04:12:08;;;;;;;2.03;1.13;;;;;20.60;99164.00;;;;2080600;28;20214;-67
2023/12/21 04:13:08;;;;;;;2.90;1.40;;;;;20.60;99178.00;;;;2080060;28;20347;-67
2023/12/21 04:14:08;;;;;;;3.40;1.20;;;;;20.60;99182.00;;;;2081124;28;20218;-67
2023/12/21 04:15:11;;;;;;;1.93;0.93;;;;;20.60;99173.00;;;;2080520;28;20283;-67
2023/12/21 04:16:11;;;;;;;1.92;1.10;;;;;20.60;99183.00;;;;2070725;28;20263;-67
2023/12/21 04:17:12;;;;;;;1.83;1.13;;;;;20.60;99187.00;;;;2080535;28;20709;-67
2023/12/21 04:18:13;;;;;;;2.83;1.20;;;;;20.60;99173.00;;;;2080787;28;20213;-67
2023/12/21 04:19:14;;;;;;;1.67;0.80;;;;;20.60;99178.00;;;;2080809;28;20673;-67
2023/12/21 04:20:14;;;;;;;2.70;1.13;;;;;20.60;99157.00;;;;2080663;28;20218;-67
2023/12/21 04:21:15;;;;;;;1.47;0.83;;;;;20.60;99170.00;;;;2071724;28;20213;-67
2023/12/21 04:22:15;;;;;;;1.50;0.90;;;;;20.60;99159.00;;;;2079646;28;20218;-67
2023/12/21 04:23:15;;;;;;;1.97;0.97;;;;;20.60;99163.00;;;;2081324;28;20214;-67
2023/12/21 04:24:16;;;;;;;2.00;1.30;;;;;20.60;99159.00;;;;2081234;28;20582;-67
2023/12/21 04:25:16;;;;;;;2.57;1.30;;;;;20.60;99158.00;;;;2080825;28;20709;-67
2023/12/21 04:26:20;;;;;;;1.60;1.10;;;;;20.60;99164.00;;;;2071800;28;20228;-67
2023/12/21 04:27:20;;;;;;;1.65;1.15;;;;;20.60;99154.00;;;;2081563;28;20216;-67
2023/12/21 04:28:20;;;;;;;1.70;0.90;;;;;20.60;99142.00;;;;2083953;28;20244;-67
2023/12/21 04:29:21;;;;;;;1.80;1.00;;;;;20.60;99132.00;;;;2080354;28;20198;-67
2023/12/21 04:30:21;;;;;;;1.73;1.10;;;;;20.60;99136.00;;;;2081128;28;20244;-67
2023/12/21 04:31:21;;;;;;;1.93;1.03;;;;;20.60;99140.00;;;;2071797;28;20201;-67
2023/12/21 04:32:22;;;;;;;1.70;0.87;;;;;20.50;99135.00;;;;2080618;28;20206;-67
2023/12/21 04:33:22;;;;;;;2.87;1.40;;;;;20.50;99127.00;;;;2081291;28;20971;-67
2023/12/21 04:34:22;;;;;;;1.80;1.17;;;;;20.50;99132.00;;;;2080693;28;20210;-67
2023/12/21 04:35:23;;;;;;;2.20;1.10;;;;;20.50;99132.00;;;;2081199;28;20245;-67
2023/12/21 04:36:23;;;;;;;1.70;0.90;;;;;20.50;99133.00;;;;2070733;28;20209;-67
2023/12/21 04:37:23;;;;;;;1.80;1.23;;;;;20.50;99130.00;;;;2081260;28;20225;-67
2023/12/21 04:38:24;;;;;;;1.67;0.90;;;;;20.50;99126.00;;;;2080588;28;20228;-67
2023/12/21 04:39:24;;;;;;;1.67;1.03;;;;;20.50;99128.00;;;;2085970;28;20232;-67
2023/12/21 04:40:24;;;;;;;1.50;0.80;;;;;20.50;99116.00;;;;2083535;28;20552;-67
2023/12/21 04:41:25;;;;;;;2.10;1.03;;;;;20.60;99105.00;;;;2071156;28;20654;-67
2023/12/21 04:42:25;;;;;;;2.33;1.20;;;;;20.50;99094.00;;;;2076227;28;20712;-67
2023/12/21 04:43:26;;;;;;;1.93;1.20;;;;;20.50;99093.00;;;;2087974;28;20689;-67
2023/12/21 04:44:26;;;;;;;2.00;1.13;;;;;20.50;99088.00;;;;2083247;28;20201;-67
2023/12/21 04:45:26;;;;;;;1.80;0.90;;;;;20.50;99092.00;;;;2080651;28;20225;-67
2023/12/21 04:46:27;;;;;;;2.20;1.10;;;;;20.50;99094.00;;;;2078022;28;20219;-67
2023/12/21 04:47:27;;;;;;;2.20;0.80;;;;;20.50;99101.00;;;;2088671;28;20262;-67
2023/12/21 04:48:27;;;;;;;2.93;0.97;;;;;20.50;99096.00;;;;2080566;28;20715;-67
2023/12/21 04:49:28;;;;;;;3.73;1.23;;;;;20.50;99100.00;;;;2078894;28;20210;-67
2023/12/21 04:50:28;;;;;;;1.80;1.00;;;;;20.50;99102.00;;;;2075234;28;20260;-67
2023/12/21 04:51:29;;;;;;;1.60;1.00;;;;;20.50;99092.00;;;;2084646;28;20263;-67
2023/12/21 04:52:29;;;;;;;1.33;0.70;;;;;20.50;99096.00;;;;2088510;28;20205;-67
2023/12/21 04:53:29;;;;;;;1.60;0.93;;;;;20.50;99094.00;;;;2080453;28;20228;-67
2023/12/21 04:54:30;;;;;;;2.00;1.30;;;;;20.50;99089.00;;;;2080949;28;20202;-67
2023/12/21 04:55:30;;;;;;;2.20;0.80;;;;;20.50;99085.00;;;;2071014;28;20263;-67
2023/12/21 04:56:30;;;;;;;1.37;0.70;;;;;20.50;99087.00;;;;2081176;28;20911;-67
2023/12/21 04:57:31;;;;;;;2.00;1.00;;;;;20.50;99084.00;;;;2080673;28;20212;-67
2023/12/21 04:58:31;;;;;;;1.33;0.70;;;;;20.50;99068.00;;;;2081080;28;20198;-67
2023/12/21 04:59:31;;;;;;;1.63;0.80;;;;;20.50;99068.00;;;;2080797;28;20225;-67
2023/12/21 05:00:32;;;;;;;2.00;0.80;;;;;20.50;99066.00;;;;2068373;28;20205;-67
2023/12/21 05:01:32;;;;;;;1.30;0.70;;;;;20.50;99069.00;;;;2078753;28;20228;-67
2023/12/21 05:02:32;;;;;;;1.73;0.77;;;;;20.50;99065.00;;;;2079522;28;20245;-67
2023/12/21 05:03:33;;;;;;;1.73;0.80;;;;;20.50;99058.00;;;;2080383;28;20248;-67